Terminal Aerodrome Forecast
Issued by NWS Melbourne, FL

Home | Current Version | Previous Version | Text Only | Print | Product List | Glossary On
Versions: 1 2 3 4 5 6 7 8 9 10 11 12 13 14 15 16 17 18 19 20 21
000
FTUS42 KMLB 200527
TAFMLB
TAF
KMLB 200527Z 2006/2106 10005KT P6SM -RA SCT020 BKN040 OVC100
      TEMPO 2008/2012 3SM RA BR
     FM201200 13012KT P6SM VCSH SCT025 BKN035 OVC050
      TEMPO 2012/2016 3SM SHRA BKN025
     FM202300 13005KT P6SM SCT025 BKN100=

USA.gov is the U.S. government's official web portal to all federal, state and local government web resources and services.